Time;durP1;ratioP1;P1;durP2;ratioP2;P2;SDS_P1;SDS_P2;PMS_P1;PMS_P2;Temp;Humidity;BMP_temperature;BMP_pressure;BME280_temperature;BME280_humidity;BME280_pressure;Samples;Min_cycle;Max_cycle;Signal;HPM_P1;HPM_P2
2021/11/26 03:16:40;;;;;;;;;66.80;56.00;;;;;;;;6443684;22;8813;-80
2021/11/26 03:32:13;;;;;;;;;65.00;54.60;;;;;;;;6255001;22;8741;-80
2021/11/26 03:44:10;;;;;;;;;;;;;;;;;;;;;
2021/11/26 03:55:58;;;;;;;;;95.75;86.25;;;;;;;;6421103;22;11560;-80
2021/11/26 04:02:17;;;;;;;;;73.75;60.50;;;;;;;;6425330;22;8708;-80
2021/11/26 04:07:57;;;;;;;;;;;;;;;;;;;;;
2021/11/26 04:10:53;;;;;;;;;;;;;;;;;;;;;
2021/11/26 04:16:34;;;;;;;;;85.60;70.80;;;;;;;;6412176;22;11387;-79
2021/11/26 04:19:21;;;;;;;;;;;;;;;;;;;;;
2021/11/26 04:26:07;;;;;;;;;;;;;;;;;;;;;
2021/11/26 04:34:33;;;;;;;;;81.80;67.80;;;;;;;;6308596;22;8726;-80
2021/11/26 04:37:31;;;;;;;;;;;;;;;;;;;;;
2021/11/26 04:49:52;;;;;;;;;;;;;;;;;;;;;
2021/11/26 04:58:32;;;;;;;;;;;;;;;;;;;;;
2021/11/26 05:01:34;;;;;;;;;;;;;;;;;;;;;
2021/11/26 05:07:04;;;;;;;;;;;;;;;;;;;;;
2021/11/26 05:12:41;;;;;;;;;;;;;;;;;;;;;
2021/11/26 05:15:34;;;;;;;;;;;;;;;;;;;;;
2021/11/26 05:18:27;;;;;;;;;;;;;;;;;;;;;
2021/11/26 05:26:56;;;;;;;;;89.40;77.00;;;;;;;;6430272;22;8668;-80
2021/11/26 05:29:56;;;;;;;;;;;;;;;;;;;;;
2021/11/26 05:38:42;;;;;;;;;;;;;;;;;;;;;
2021/11/26 05:41:44;;;;;;;;;;;;;;;;;;;;;
2021/11/26 05:44:40;;;;;;;;;;;;;;;;;;;;;
2021/11/26 05:56:24;;;;;;;;;90.50;78.00;;;;;;;;6375279;22;8669;-80
2021/11/26 05:59:07;;;;;;;;;;;;;;;;;;;;;
2021/11/26 06:04:51;;;;;;;;;;;;;;;;;;;;;
2021/11/26 06:07:24;;;;;;;;;88.50;74.50;;;;;;;;6446659;22;36500;-80
2021/11/26 06:09:58;;;;;;;;;85.20;69.40;;;;;;;;6448320;22;8696;-80
2021/11/26 06:12:44;;;;;;;;;;;;;;;;;;;;;
2021/11/26 06:15:23;;;;;;;;;;;;;;;;;;;;;
2021/11/26 06:17:51;;;;;;;;;75.80;61.20;;;;;;;;6446180;22;38031;-79
2021/11/26 06:20:27;;;;;;;;;86.60;71.40;;;;;;;;6447790;22;9648;-79
2021/11/26 06:23:08;;;;;;;;;90.00;77.40;;;;;;;;6448341;22;9563;-80
2021/11/26 06:25:41;;;;;;;;;91.00;78.25;;;;;;;;6419117;22;8720;-80
2021/11/26 06:28:16;;;;;;;;;86.50;73.50;;;;;;;;6448345;22;8712;-80
2021/11/26 06:31:02;;;;;;;;;94.80;85.60;;;;;;;;6418781;22;8785;-79
2021/11/26 06:33:27;;;;;;;;;92.00;82.25;;;;;;;;6446941;22;8728;-79
2021/11/26 06:38:58;;;;;;;;;;;;;;;;;;;;;
2021/11/26 06:41:51;;;;;;;;;;;;;;;;;;;;;
2021/11/26 06:44:16;;;;;;;;;84.60;68.20;;;;;;;;6446749;22;36039;-78
2021/11/26 06:46:42;;;;;;;;;80.00;64.50;;;;;;;;6418904;22;8788;-79
2021/11/26 06:49:10;;;;;;;;;99.75;94.75;;;;;;;;6447418;22;8715;-80
2021/11/26 06:51:36;;;;;;;;;95.00;87.00;;;;;;;;6447610;22;8687;-79
2021/11/26 06:54:31;;;;;;;;;;;;;;;;;;;;;
2021/11/26 06:57:32;;;;;;;;;96.60;88.40;;;;;;;;6367877;22;36138;-80
2021/11/26 07:03:20;;;;;;;;;86.25;69.50;;;;;;;;6390172;22;8769;-79
2021/11/26 07:05:51;;;;;;;;;87.75;74.50;;;;;;;;6403056;22;8708;-79
2021/11/26 08:28:05;;;;;;;;;;;;;;;;;;;;;
2021/11/26 08:30:31;;;;;;;;;79.50;62.25;;;;;;;;6286763;22;37249;-80
2021/11/26 08:32:57;;;;;;;;;79.67;64.00;;;;;;;;6316436;22;8842;-81
2021/11/26 08:36:01;;;;;;;;;66.50;54.50;;;;;;;;6316978;22;8760;-81
2021/11/26 08:41:29;;;;;;;;;76.50;62.75;;;;;;;;6256316;22;8725;-80
2021/11/26 08:44:33;;;;;;;;;;;;;;;;;;;;;
2021/11/26 08:50:24;;;;;;;;;71.50;58.75;;;;;;;;6153264;23;9634;-79
2021/11/26 08:53:24;;;;;;;;;75.20;61.00;;;;;;;;6225345;23;8735;-79
2021/11/26 08:55:53;;;;;;;;;77.33;62.67;;;;;;;;6200730;22;8722;-79
2021/11/26 08:58:27;;;;;;;;;69.80;57.40;;;;;;;;6285106;22;8746;-79
2021/11/26 09:01:25;;;;;;;;;;;;;;;;;;;;;
2021/11/26 09:04:14;;;;;;;;;83.60;70.00;;;;;;;;6282485;22;35371;-79
2021/11/26 09:06:52;;;;;;;;;;;;;;;;;;;;;
2021/11/26 09:12:30;;;;;;;;;;;;;;;;;;;;;
2021/11/26 09:14:56;;;;;;;;;74.50;62.00;;;;;;;;6257893;22;35772;-78
2021/11/26 09:17:31;;;;;;;;;;;;;;;;;;;;;
2021/11/26 09:19:57;;;;;;;;;71.00;58.50;;;;;;;;6285297;22;36429;-78
2021/11/26 09:23:00;;;;;;;;;59.75;51.00;;;;;;;;6285910;22;10777;-78
2021/11/26 09:28:48;;;;;;;;;62.50;51.00;;;;;;;;6275427;22;11687;-79
2021/11/26 09:31:39;;;;;;;;;71.20;57.80;;;;;;;;6386489;22;8750;-80
2021/11/26 09:34:33;;;;;;;;;75.75;63.00;;;;;;;;6285420;22;8691;-80
2021/11/26 09:40:44;;;;;;;;;;;;;;;;;;;;;
2021/11/26 09:43:10;;;;;;;;;67.00;56.00;;;;;;;;6162318;23;36046;-79
2021/11/26 09:52:12;;;;;;;;;69.67;56.00;;;;;;;;6222833;23;11479;-81
2021/11/26 10:24:12;;;;;;;;;;;;;;;;;;;;;
2021/11/26 10:46:26;;;;;;;;;71.75;59.50;;;;;;;;6018612;23;8759;-79
2021/11/26 11:08:23;;;;;;;;;46.25;42.00;;;;;;;;6105055;23;8725;-79
2021/11/26 11:11:07;;;;;;;;;50.00;43.75;;;;;;;;6049020;23;8745;-79
2021/11/26 11:13:41;;;;;;;;;57.00;48.75;;;;;;;;6078273;23;8831;-79
2021/11/26 11:16:32;;;;;;;;;61.75;52.25;;;;;;;;6117820;23;8776;-80
2021/11/26 11:18:58;;;;;;;;;43.00;38.25;;;;;;;;6164528;23;8728;-77
2021/11/26 11:21:25;;;;;;;;;61.25;51.00;;;;;;;;6159847;22;8818;-77
2021/11/26 11:23:50;;;;;;;;;50.50;43.25;;;;;;;;6230924;22;8772;-78
2021/11/26 11:26:16;;;;;;;;;53.50;46.00;;;;;;;;6387866;22;8791;-77
2021/11/26 11:28:41;;;;;;;;;63.75;53.50;;;;;;;;6417125;22;8871;-78
2021/11/26 11:31:07;;;;;;;;;60.25;49.75;;;;;;;;6416024;22;8729;-76
2021/11/26 11:33:33;;;;;;;;;61.75;52.50;;;;;;;;6417162;22;9489;-76
2021/11/26 11:35:59;;;;;;;;;50.00;43.50;;;;;;;;6387644;22;8831;-76
2021/11/26 11:38:24;;;;;;;;;56.25;47.25;;;;;;;;6388560;22;8725;-76
2021/11/26 11:40:58;;;;;;;;;62.00;52.75;;;;;;;;6416820;22;8894;-74
2021/11/26 11:43:23;;;;;;;;;61.25;52.50;;;;;;;;6417097;22;8734;-74
2021/11/26 11:45:57;;;;;;;;;62.00;52.25;;;;;;;;6416761;22;8764;-74
2021/11/26 11:48:27;;;;;;;;;44.25;39.75;;;;;;;;6416692;22;8736;-78
2021/11/26 11:50:53;;;;;;;;;57.25;47.75;;;;;;;;6388123;22;8674;-76
2021/11/26 11:53:21;;;;;;;;;48.25;42.00;;;;;;;;6416554;22;8776;-76
2021/11/26 11:55:47;;;;;;;;;53.50;43.25;;;;;;;;6416947;22;8695;-76
2021/11/26 11:58:20;;;;;;;;;65.50;54.25;;;;;;;;6416631;22;8782;-76
2021/11/26 12:00:47;;;;;;;;;35.75;31.25;;;;;;;;6416421;22;8710;-76
2021/11/26 12:03:15;;;;;;;;;55.25;46.75;;;;;;;;6416469;22;9655;-77
2021/11/26 12:06:02;;;;;;;;;56.25;47.50;;;;;;;;6416997;22;8733;-81
2021/11/26 12:08:28;;;;;;;;;67.50;55.75;;;;;;;;6387452;22;8709;-79
2021/11/26 12:10:57;;;;;;;;;50.25;43.25;;;;;;;;6416825;22;8718;-77
2021/11/26 12:13:38;;;;;;;;;63.00;52.75;;;;;;;;6416718;22;8781;-76
2021/11/26 12:16:08;;;;;;;;;58.25;49.50;;;;;;;;6415690;22;8809;-76
2021/11/26 12:18:39;;;;;;;;;61.20;51.20;;;;;;;;6416699;22;8714;-77
2021/11/26 12:21:04;;;;;;;;;57.00;48.67;;;;;;;;6415655;22;8746;-76
2021/11/26 12:23:35;;;;;;;;;65.00;55.00;;;;;;;;6416540;22;11411;-78
2021/11/26 12:26:35;;;;;;;;;72.75;59.00;;;;;;;;6415846;22;8745;-79
2021/11/26 12:29:10;;;;;;;;;61.00;51.00;;;;;;;;6416372;22;8721;-79
2021/11/26 12:31:36;;;;;;;;;59.25;49.25;;;;;;;;6415485;22;8718;-78
2021/11/26 12:34:06;;;;;;;;;55.75;47.25;;;;;;;;6416535;22;8722;-80
2021/11/26 12:36:47;;;;;;;;;59.25;49.75;;;;;;;;6416860;22;8721;-77
2021/11/26 12:39:24;;;;;;;;;41.00;37.75;;;;;;;;6415942;22;8714;-77
2021/11/26 12:41:51;;;;;;;;;61.00;51.67;;;;;;;;6416493;22;8783;-77
2021/11/26 12:44:23;;;;;;;;;69.20;56.80;;;;;;;;6415712;22;11831;-78
2021/11/26 12:46:59;;;;;;;;;76.80;63.20;;;;;;;;6416302;22;8710;-77
2021/11/26 12:52:11;;;;;;;;;66.60;55.80;;;;;;;;6416597;22;8733;-76
2021/11/26 12:54:38;;;;;;;;;71.75;58.25;;;;;;;;6416630;22;8717;-77
2021/11/26 12:57:03;;;;;;;;;71.60;57.80;;;;;;;;6415949;22;8686;-78
2021/11/26 12:59:45;;;;;;;;;66.50;55.00;;;;;;;;6416859;22;8753;-81
2021/11/26 13:02:17;;;;;;;;;77.80;64.60;;;;;;;;6414939;22;9646;-77
2021/11/26 13:08:19;;;;;;;;;54.50;47.00;;;;;;;;6256274;22;8718;-83
2021/11/26 13:10:45;;;;;;;;;69.40;58.00;;;;;;;;6256586;22;8841;-79
2021/11/26 13:13:10;;;;;;;;;64.00;54.00;;;;;;;;6256058;22;8785;-78
2021/11/26 13:15:37;;;;;;;;;59.50;51.25;;;;;;;;6314349;22;8734;-78
2021/11/26 13:18:11;;;;;;;;;63.50;53.50;;;;;;;;6409945;22;8847;-77
2021/11/26 13:20:38;;;;;;;;;59.00;48.75;;;;;;;;6414297;22;11314;-77
2021/11/26 13:23:05;;;;;;;;;62.75;52.25;;;;;;;;6386689;22;8741;-78
2021/11/26 13:25:38;;;;;;;;;66.67;56.00;;;;;;;;6387738;22;8726;-78
2021/11/26 13:28:08;;;;;;;;;73.40;59.60;;;;;;;;6415230;22;11329;-78
2021/11/26 13:30:54;;;;;;;;;69.20;57.20;;;;;;;;6415967;22;8692;-78
2021/11/26 13:33:21;;;;;;;;;60.00;50.75;;;;;;;;6415439;22;8733;-77
2021/11/26 13:35:51;;;;;;;;;59.50;50.50;;;;;;;;6416436;22;8722;-77
2021/11/26 13:38:24;;;;;;;;;68.33;56.67;;;;;;;;6415855;22;11453;-77
2021/11/26 13:40:52;;;;;;;;;67.25;56.25;;;;;;;;6416360;22;10665;-78
2021/11/26 13:43:22;;;;;;;;;69.00;56.75;;;;;;;;6386536;22;9233;-78
2021/11/26 13:45:48;;;;;;;;;73.25;60.00;;;;;;;;6386838;22;8824;-77
2021/11/26 13:48:14;;;;;;;;;61.00;52.00;;;;;;;;6386217;22;8780;-77
2021/11/26 13:50:40;;;;;;;;;63.75;53.50;;;;;;;;6415999;22;8706;-78
2021/11/26 13:53:06;;;;;;;;;50.75;44.25;;;;;;;;6386973;22;8850;-78
2021/11/26 13:55:32;;;;;;;;;59.00;50.75;;;;;;;;6416144;22;8775;-76
2021/11/26 13:58:04;;;;;;;;;53.33;46.00;;;;;;;;6387038;22;8722;-76
2021/11/26 14:00:30;;;;;;;;;41.75;38.75;;;;;;;;6415851;22;12281;-77
2021/11/26 14:02:57;;;;;;;;;53.33;46.67;;;;;;;;6416246;22;8787;-77
2021/11/26 14:05:27;;;;;;;;;62.80;52.80;;;;;;;;6415285;22;8753;-77
2021/11/26 14:08:07;;;;;;;;;57.50;49.50;;;;;;;;6416388;22;8706;-78
2021/11/26 14:10:33;;;;;;;;;49.00;43.25;;;;;;;;6415907;22;8722;-80
2021/11/26 14:19:04;;;;;;;;;60.00;49.00;;;;;;;;6415573;22;9604;-77
2021/11/26 14:21:31;;;;;;;;;68.50;56.25;;;;;;;;6415439;22;8765;-76
2021/11/26 14:23:59;;;;;;;;;61.80;50.20;;;;;;;;6415657;22;8745;-76
2021/11/26 14:26:25;;;;;;;;;57.00;48.25;;;;;;;;6415718;22;8726;-76
2021/11/26 14:29:01;;;;;;;;;51.25;45.00;;;;;;;;6415182;22;8690;-79
2021/11/26 14:31:30;;;;;;;;;56.25;47.25;;;;;;;;6415498;22;8875;-77
2021/11/26 14:33:59;;;;;;;;;69.00;56.80;;;;;;;;6414261;22;8726;-77
2021/11/26 14:36:28;;;;;;;;;66.50;54.50;;;;;;;;6414317;22;8741;-77
2021/11/26 14:38:53;;;;;;;;;74.80;61.60;;;;;;;;6415217;22;8725;-77
2021/11/26 14:41:19;;;;;;;;;75.00;61.20;;;;;;;;6414651;22;8737;-77
2021/11/26 14:43:45;;;;;;;;;62.50;53.50;;;;;;;;6414768;22;8765;-79
2021/11/26 14:46:12;;;;;;;;;59.80;50.80;;;;;;;;6414500;22;9682;-78
2021/11/26 14:48:45;;;;;;;;;64.20;53.80;;;;;;;;6386466;22;8831;-78
2021/11/26 14:51:23;;;;;;;;;72.60;59.00;;;;;;;;6413829;22;8717;-77
2021/11/26 14:53:48;;;;;;;;;67.25;55.25;;;;;;;;6385718;22;8750;-79
2021/11/26 14:56:15;;;;;;;;;77.33;64.00;;;;;;;;6413484;22;8722;-78
2021/11/26 14:58:48;;;;;;;;;70.50;58.50;;;;;;;;6414860;22;8706;-81
2021/11/26 15:01:20;;;;;;;;;69.60;58.00;;;;;;;;6413935;22;8742;-78
2021/11/26 15:03:46;;;;;;;;;65.40;55.00;;;;;;;;6414570;22;8750;-77
2021/11/26 15:06:11;;;;;;;;;71.00;59.25;;;;;;;;6414586;22;8738;-79
2021/11/26 15:27:04;;;;;;;;;67.25;56.00;;;;;;;;6340184;22;8764;-82
2021/11/26 15:29:29;;;;;;;;;67.60;56.60;;;;;;;;6412629;22;8826;-77
2021/11/26 15:31:55;;;;;;;;;65.25;54.50;;;;;;;;6414093;22;8760;-77
2021/11/26 15:34:20;;;;;;;;;68.25;57.00;;;;;;;;6409884;22;8861;-76
2021/11/26 15:36:48;;;;;;;;;84.75;71.25;;;;;;;;6414711;22;8753;-77
2021/11/26 15:39:15;;;;;;;;;81.00;66.80;;;;;;;;6413322;22;8709;-78
2021/11/26 15:41:41;;;;;;;;;96.00;93.25;;;;;;;;6385458;22;8772;-78
2021/11/26 15:44:15;;;;;;;;;138.40;137.80;;;;;;;;6384479;22;8757;-80
2021/11/26 15:46:46;;;;;;;;;106.60;106.60;;;;;;;;6415593;22;8829;-79
2021/11/26 15:49:11;;;;;;;;;115.00;115.00;;;;;;;;6386146;22;8685;-77
2021/11/26 15:54:40;;;;;;;;;146.40;145.20;;;;;;;;6396194;22;8761;-78
2021/11/26 15:57:05;;;;;;;;;133.00;132.67;;;;;;;;6415394;22;8677;-78
2021/11/26 15:59:30;;;;;;;;;171.00;170.00;;;;;;;;6415592;22;11567;-76
2021/11/26 16:01:56;;;;;;;;;139.25;139.25;;;;;;;;6415157;22;8736;-76
2021/11/26 16:04:21;;;;;;;;;140.20;140.20;;;;;;;;6415252;22;8784;-76
2021/11/26 16:06:48;;;;;;;;;133.00;130.80;;;;;;;;6385995;22;8780;-77
2021/11/26 16:09:42;;;;;;;;;121.80;119.40;;;;;;;;6386704;22;9035;-79
2021/11/26 16:24:41;;;;;;;;;97.40;93.60;;;;;;;;6193844;23;8754;-77
2021/11/26 16:27:29;;;;;;;;;103.80;103.80;;;;;;;;6194056;23;8793;-78
2021/11/26 16:29:54;;;;;;;;;119.20;116.20;;;;;;;;6263214;22;8736;-77
2021/11/26 16:35:55;;;;;;;;;109.75;107.00;;;;;;;;6415192;22;8674;-79
2021/11/26 16:38:28;;;;;;;;;117.60;117.00;;;;;;;;6353575;22;9121;-79
2021/11/26 16:41:02;;;;;;;;;133.40;132.40;;;;;;;;6415469;22;8733;-79
2021/11/26 16:43:30;;;;;;;;;151.17;151.17;;;;;;;;6415613;22;8777;-80
2021/11/26 16:45:55;;;;;;;;;122.00;121.80;;;;;;;;6384058;22;8847;-78
2021/11/26 16:48:48;;;;;;;;;87.25;76.75;;;;;;;;6386352;22;11472;-78
2021/11/26 16:51:34;;;;;;;;;118.20;118.00;;;;;;;;6386445;22;8767;-81
2021/11/26 16:54:41;;;;;;;;;;;;;;;;;;;;;
2021/11/26 16:57:32;;;;;;;;;136.20;136.00;;;;;;;;6366293;22;35913;-82
2021/11/26 17:03:37;;;;;;;;;127.80;127.40;;;;;;;;6316230;22;8798;-80
2021/11/26 17:06:03;;;;;;;;;133.00;132.00;;;;;;;;6317205;22;8740;-76
2021/11/26 17:08:29;;;;;;;;;137.60;137.60;;;;;;;;6373049;22;8757;-77
2021/11/26 17:10:54;;;;;;;;;149.67;149.67;;;;;;;;6415510;22;8739;-78
2021/11/26 17:19:11;;;;;;;;;127.83;127.67;;;;;;;;6364990;22;8744;-78
2021/11/26 17:21:36;;;;;;;;;124.20;122.60;;;;;;;;6415320;22;8729;-77
2021/11/26 17:24:02;;;;;;;;;135.40;135.20;;;;;;;;6414406;22;8861;-78
2021/11/26 17:26:35;;;;;;;;;150.83;150.83;;;;;;;;6408943;22;8740;-80
2021/11/26 17:29:03;;;;;;;;;142.80;141.80;;;;;;;;6380982;22;8859;-79
2021/11/26 17:31:36;;;;;;;;;135.83;135.83;;;;;;;;6381058;22;8731;-80
2021/11/26 17:34:48;;;;;;;;;;;;;;;;;;;;;
2021/11/26 17:37:38;;;;;;;;;144.17;142.67;;;;;;;;6380783;22;35954;-81
2021/11/26 17:40:33;;;;;;;;;148.17;148.17;;;;;;;;6383228;22;8707;-81
2021/11/26 17:43:32;;;;;;;;;;;;;;;;;;;;;
2021/11/26 17:49:26;;;;;;;;;122.00;122.00;;;;;;;;6254376;22;8733;-79
2021/11/26 17:52:03;;;;;;;;;108.75;108.75;;;;;;;;6259641;22;11574;-80
2021/11/26 18:35:50;;;;;;;;;116.80;114.40;;;;;;;;6365635;22;8706;-79
2021/11/26 18:38:16;;;;;;;;;97.80;96.00;;;;;;;;6380926;22;8903;-77
2021/11/26 18:40:43;;;;;;;;;113.20;112.80;;;;;;;;6382494;22;8750;-76
2021/11/26 18:43:15;;;;;;;;;97.80;95.00;;;;;;;;6382745;22;8763;-76
2021/11/26 18:45:43;;;;;;;;;118.60;118.40;;;;;;;;6379729;22;8746;-77
2021/11/26 18:48:08;;;;;;;;;106.00;105.60;;;;;;;;6383003;22;8815;-77
2021/11/26 18:50:34;;;;;;;;;97.75;96.25;;;;;;;;6382029;22;8730;-78
2021/11/26 18:53:34;;;;;;;;;102.75;102.75;;;;;;;;6380886;22;8800;-80
2021/11/26 18:56:33;;;;;;;;;;;;;;;;;;;;;
2021/11/26 18:59:01;;;;;;;;;96.50;92.00;;;;;;;;6374859;22;36712;-77
2021/11/26 19:01:36;;;;;;;;;91.60;83.40;;;;;;;;6382111;22;10933;-79
2021/11/26 19:04:07;;;;;;;;;110.60;110.00;;;;;;;;6382533;22;8839;-80
2021/11/26 19:06:36;;;;;;;;;97.33;93.33;;;;;;;;6380255;22;8809;-80
2021/11/26 19:09:03;;;;;;;;;103.60;99.20;;;;;;;;6382994;22;8833;-78
2021/11/26 19:11:33;;;;;;;;;113.00;113.00;;;;;;;;6381949;22;8714;-77
2021/11/26 19:13:58;;;;;;;;;109.17;108.33;;;;;;;;6382507;22;8726;-78
2021/11/26 19:16:26;;;;;;;;;132.20;130.20;;;;;;;;6382029;22;8780;-78
2021/11/26 19:18:52;;;;;;;;;155.40;155.20;;;;;;;;6382196;22;8722;-78
2021/11/26 19:21:17;;;;;;;;;156.40;153.80;;;;;;;;6381508;22;8781;-78
2021/11/26 19:23:45;;;;;;;;;140.80;139.20;;;;;;;;6383594;22;9189;-79
2021/11/26 19:26:11;;;;;;;;;150.00;148.00;;;;;;;;6381760;22;8757;-77
2021/11/26 19:28:36;;;;;;;;;87.25;75.50;;;;;;;;6381964;22;8841;-77
2021/11/26 19:31:08;;;;;;;;;85.00;73.00;;;;;;;;6384525;22;8778;-79
2021/11/26 19:34:21;;;;;;;;;81.20;67.80;;;;;;;;6383275;22;8735;-81
2021/11/26 19:36:46;;;;;;;;;94.00;89.40;;;;;;;;6298989;22;8780;-83
2021/11/26 19:42:21;;;;;;;;;95.00;89.80;;;;;;;;6308880;22;8746;-80
2021/11/26 19:44:55;;;;;;;;;83.25;69.75;;;;;;;;6352004;22;8772;-80
2021/11/26 19:47:31;;;;;;;;;;;;;;;;;;;;;
2021/11/26 19:56:16;;;;;;;;;;;;;;;;;;;;;
2021/11/26 19:58:54;;;;;;;;;61.75;53.00;;;;;;;;6349237;22;34996;-81
2021/11/26 20:08:21;;;;;;;;;65.80;55.80;;;;;;;;6194088;23;8764;-81
2021/11/26 20:20:12;;;;;;;;;70.75;59.25;;;;;;;;6104061;23;8739;-80
2021/11/26 20:32:20;;;;;;;;;70.80;59.60;;;;;;;;6139562;23;9857;-82
